Time;durP1;ratioP1;P1;durP2;ratioP2;P2;SDS_P1;SDS_P2;PMS_P1;PMS_P2;Temp;Humidity;BMP_temperature;BMP_pressure;BME280_temperature;BME280_humidity;BME280_pressure;Samples;Min_cycle;Max_cycle;Signal;HPM_P1;HPM_P2
2023/10/23 00:01:21;;;;;;;5.40;4.43;;;;;;;10.99;100.00;100552.19;7392905;19;20436;-72
2023/10/23 00:03:48;;;;;;;5.47;4.47;;;;;;;10.95;100.00;100550.91;7391227;19;20364;-72
2023/10/23 00:06:16;;;;;;;5.28;4.78;;;;;;;10.92;100.00;100557.41;7392283;19;20829;-72
2023/10/23 00:08:42;;;;;;;5.63;4.63;;;;;;;10.89;100.00;100560.41;7394381;19;21003;-72
2023/10/23 00:11:20;;;;;;;6.07;5.22;;;;;;;10.85;100.00;100550.31;7395297;19;20351;-72
2023/10/23 00:13:47;;;;;;;6.32;5.30;;;;;;;10.81;100.00;100557.81;7393118;19;20369;-72
2023/10/23 00:16:13;;;;;;;7.13;5.45;;;;;;;10.77;100.00;100548.56;7391311;19;20366;-72
2023/10/23 00:18:40;;;;;;;6.82;5.93;;;;;;;10.75;100.00;100553.22;7394923;19;20480;-72
2023/10/23 00:21:08;;;;;;;6.85;6.15;;;;;;;10.73;100.00;100555.22;7395237;19;20360;-72
2023/10/23 00:23:35;;;;;;;7.20;6.30;;;;;;;10.72;100.00;100557.06;7394909;19;20868;-72
2023/10/23 00:26:02;;;;;;;6.63;5.93;;;;;;;10.72;100.00;100564.22;7393769;19;20888;-72
2023/10/23 00:28:28;;;;;;;9.10;6.45;;;;;;;10.70;100.00;100563.56;7395075;19;20408;-72
2023/10/23 00:30:57;;;;;;;7.32;6.45;;;;;;;10.68;100.00;100557.59;7393286;19;20385;-72
2023/10/23 00:33:25;;;;;;;8.73;7.03;;;;;;;10.67;100.00;100564.75;7393284;19;20352;-72
2023/10/23 00:35:53;;;;;;;8.15;6.43;;;;;;;10.65;100.00;100561.44;7394376;19;21394;-72
2023/10/23 00:38:20;;;;;;;7.88;6.40;;;;;;;10.64;100.00;100559.78;7393601;19;20336;-72
2023/10/23 00:40:47;;;;;;;8.85;7.05;;;;;;;10.64;100.00;100551.00;7393866;19;20352;-72
2023/10/23 00:43:22;;;;;;;9.15;7.15;;;;;;;10.63;100.00;100558.16;7392294;19;20341;-72
2023/10/23 00:45:52;;;;;;;8.93;6.90;;;;;;;10.63;100.00;100562.63;7389485;19;20673;-72
2023/10/23 00:48:21;;;;;;;8.27;7.20;;;;;;;10.61;100.00;100562.81;7390856;19;20369;-72
2023/10/23 00:50:49;;;;;;;7.35;6.63;;;;;;;10.64;100.00;100558.97;7391398;19;20659;-72
2023/10/23 00:53:25;;;;;;;8.15;6.97;;;;;;;10.65;100.00;100557.94;7392329;19;20368;-72
2023/10/23 00:55:54;;;;;;;8.88;7.30;;;;;;;10.66;100.00;100562.28;7391599;19;20422;-72
2023/10/23 00:58:26;;;;;;;12.07;7.65;;;;;;;10.69;100.00;100561.91;7393043;19;20340;-72
2023/10/23 01:00:58;;;;;;;8.70;7.30;;;;;;;10.71;100.00;100576.66;7388196;19;20360;-72
2023/10/23 01:03:25;;;;;;;8.40;7.13;;;;;;;10.75;100.00;100571.78;7395764;19;20333;-72
2023/10/23 01:05:53;;;;;;;10.27;7.72;;;;;;;10.81;100.00;100571.91;7397626;19;20336;-72
2023/10/23 01:08:20;;;;;;;9.38;7.50;;;;;;;10.89;100.00;100568.38;7400699;19;20368;-72
2023/10/23 01:10:47;;;;;;;9.63;8.02;;;;;;;10.94;100.00;100571.28;7398386;19;20343;-72
2023/10/23 01:13:14;;;;;;;11.05;7.80;;;;;;;11.01;100.00;100566.94;7399419;19;20368;-72
2023/10/23 01:15:42;;;;;;;10.65;7.47;;;;;;;11.08;100.00;100574.16;7399728;19;20328;-72
2023/10/23 01:18:09;;;;;;;8.43;7.20;;;;;;;11.14;100.00;100576.09;7398466;19;20753;-72
2023/10/23 01:20:35;;;;;;;9.63;7.15;;;;;;;11.18;100.00;100574.75;7400652;19;20348;-73
2023/10/23 01:23:03;;;;;;;8.23;7.07;;;;;;;11.22;100.00;100576.03;7396310;19;20372;-72
2023/10/23 01:25:30;;;;;;;9.38;6.70;;;;;;;11.25;100.00;100583.59;7398321;19;20344;-72
2023/10/23 01:27:57;;;;;;;7.47;6.45;;;;;;;11.30;100.00;100586.53;7395213;19;20376;-72
2023/10/23 01:30:24;;;;;;;8.02;6.15;;;;;;;11.34;100.00;100581.69;7395790;19;20756;-72
2023/10/23 01:32:51;;;;;;;7.50;6.63;;;;;;;11.36;100.00;100591.13;7390927;19;20386;-73
2023/10/23 01:35:19;;;;;;;7.70;6.25;;;;;;;11.40;100.00;100581.78;7390869;19;20368;-72
2023/10/23 01:37:47;;;;;;;7.00;5.77;;;;;;;11.42;100.00;100593.03;7397092;19;20370;-72
2023/10/23 01:40:14;;;;;;;6.80;5.80;;;;;;;11.45;100.00;100591.03;7398709;19;20396;-72
2023/10/23 01:42:42;;;;;;;6.90;6.20;;;;;;;11.50;100.00;100593.97;7396205;19;20365;-72
2023/10/23 01:45:10;;;;;;;6.80;6.10;;;;;;;11.54;100.00;100589.91;7395839;19;20347;-73
2023/10/23 01:47:37;;;;;;;7.53;6.72;;;;;;;11.58;100.00;100583.22;7396874;19;20867;-73
2023/10/23 01:50:05;;;;;;;8.75;6.72;;;;;;;11.65;100.00;100586.00;7399905;19;20372;-73
2023/10/23 01:52:32;;;;;;;8.80;7.13;;;;;;;11.71;100.00;100583.44;7396662;19;20875;-73
2023/10/23 01:54:59;;;;;;;8.23;6.40;;;;;;;11.76;100.00;100586.34;7397145;19;20360;-73
2023/10/23 01:57:27;;;;;;;6.95;6.22;;;;;;;11.81;100.00;100586.59;7398352;19;20420;-73
2023/10/23 01:59:55;;;;;;;7.28;6.32;;;;;;;11.87;100.00;100592.19;7396467;19;20408;-73
2023/10/23 02:02:22;;;;;;;7.63;6.25;;;;;;;11.92;100.00;100596.00;7394314;19;20352;-73
2023/10/23 02:04:49;;;;;;;6.50;5.63;;;;;;;11.97;100.00;100598.91;7395042;19;20372;-73
2023/10/23 02:07:16;;;;;;;7.05;5.55;;;;;;;12.02;100.00;100601.00;7398323;19;20392;-73
2023/10/23 02:09:42;;;;;;;7.47;5.73;;;;;;;12.04;100.00;100598.97;7399477;19;20787;-73
2023/10/23 02:12:09;;;;;;;6.80;5.18;;;;;;;12.09;100.00;100596.59;7397781;19;20418;-73
2023/10/23 02:14:37;;;;;;;7.88;5.22;;;;;;;12.13;100.00;100594.38;7392662;19;20348;-73
2023/10/23 02:17:05;;;;;;;5.82;5.22;;;;;;;12.17;100.00;100599.13;7395832;19;20881;-73
2023/10/23 02:19:34;;;;;;;5.85;5.03;;;;;;;12.20;100.00;100588.13;7394397;19;20352;-73
2023/10/23 02:22:01;;;;;;;5.43;4.85;;;;;;;12.24;100.00;100593.91;7397863;19;20360;-73
2023/10/23 02:24:28;;;;;;;5.88;4.63;;;;;;;12.25;100.00;100603.50;7397223;19;20372;-73
2023/10/23 02:26:56;;;;;;;5.68;5.07;;;;;;;12.27;100.00;100611.31;7398440;19;20366;-73
2023/10/23 02:29:23;;;;;;;6.38;5.32;;;;;;;12.26;100.00;100610.47;7396593;19;20372;-73
2023/10/23 02:31:50;;;;;;;5.40;4.90;;;;;;;12.28;100.00;100615.59;7398625;19;20402;-73
2023/10/23 02:34:17;;;;;;;6.05;5.10;;;;;;;12.30;100.00;100613.56;7393064;19;20403;-73
2023/10/23 02:36:43;;;;;;;5.63;5.03;;;;;;;12.30;100.00;100618.91;7393093;19;20382;-73
2023/10/23 02:39:10;;;;;;;5.35;4.85;;;;;;;12.31;100.00;100624.03;7396235;19;20371;-73
2023/10/23 02:41:38;;;;;;;6.43;4.90;;;;;;;12.32;100.00;100620.34;7397455;19;20407;-73
2023/10/23 02:44:05;;;;;;;5.82;4.63;;;;;;;12.35;100.00;100627.16;7398178;19;20436;-73
2023/10/23 02:46:38;;;;;;;6.72;5.18;;;;;;;12.36;100.00;100626.94;7396105;19;20412;-73
2023/10/23 02:49:05;;;;;;;8.27;4.97;;;;;;;12.36;99.85;100626.94;7397320;19;20357;-73
2023/10/23 02:51:32;;;;;;;5.20;4.63;;;;;;;12.38;99.79;100629.44;7393816;19;20348;-73
2023/10/23 02:53:59;;;;;;;6.40;4.82;;;;;;;12.35;99.74;100633.28;7393063;19;20694;-73
2023/10/23 02:56:26;;;;;;;6.05;4.95;;;;;;;12.35;99.86;100624.50;7397125;19;20325;-73
2023/10/23 02:58:53;;;;;;;5.97;4.90;;;;;;;12.35;99.76;100630.63;7396027;19;20385;-73
2023/10/23 03:01:22;;;;;;;8.77;5.13;;;;;;;12.32;99.84;100632.84;7393937;19;20400;-73
2023/10/23 03:03:50;;;;;;;9.23;4.73;;;;;;;12.30;99.74;100634.84;7395741;19;20980;-73
2023/10/23 03:06:17;;;;;;;6.82;4.68;;;;;;;12.31;99.88;100633.88;7392983;19;20873;-73
2023/10/23 03:08:44;;;;;;;5.18;4.68;;;;;;;12.30;100.00;100634.84;7395377;19;20386;-73
2023/10/23 03:11:11;;;;;;;6.63;4.70;;;;;;;12.32;99.93;100635.50;7396683;19;20416;-73
2023/10/23 03:13:38;;;;;;;6.00;4.65;;;;;;;12.31;100.00;100641.84;7393725;19;20869;-73
2023/10/23 03:16:05;;;;;;;5.75;4.63;;;;;;;12.32;100.00;100638.16;7394092;19;20348;-73
2023/10/23 03:18:32;;;;;;;6.30;4.60;;;;;;;12.31;100.00;100647.16;7396492;19;20352;-73
2023/10/23 03:21:00;;;;;;;5.38;4.38;;;;;;;12.30;100.00;100645.50;7395725;19;20857;-73
2023/10/23 03:23:28;;;;;;;6.80;5.40;;;;;;;12.31;100.00;100657.81;7394698;19;20701;-73
2023/10/23 03:25:56;;;;;;;5.20;4.53;;;;;;;12.33;100.00;100655.78;7391163;19;20838;-73
2023/10/23 03:28:23;;;;;;;6.40;4.50;;;;;;;12.34;100.00;100660.06;7396515;19;20340;-73
2023/10/23 03:30:50;;;;;;;6.77;4.60;;;;;;;12.32;100.00;100651.44;7395644;19;20390;-73
2023/10/23 03:33:17;;;;;;;6.95;4.82;;;;;;;12.34;100.00;100660.88;7392533;19;20381;-73
2023/10/23 03:35:44;;;;;;;5.25;4.75;;;;;;;12.34;100.00;100660.06;7392863;19;20939;-73
2023/10/23 03:38:13;;;;;;;5.60;4.57;;;;;;;12.35;100.00;100661.75;7395135;19;20428;-73
2023/10/23 03:40:39;;;;;;;5.13;4.47;;;;;;;12.35;100.00;100670.53;7395617;19;20669;-73
2023/10/23 03:43:07;;;;;;;5.00;4.28;;;;;;;12.33;100.00;100663.75;7394422;19;20678;-73
2023/10/23 03:45:38;;;;;;;6.40;4.30;;;;;;;12.35;100.00;100659.91;7394707;19;20731;-73
2023/10/23 03:48:05;;;;;;;5.45;4.57;;;;;;;12.39;100.00;100665.66;7394732;19;20381;-73
2023/10/23 03:50:36;;;;;;;5.80;4.88;;;;;;;12.41;100.00;100663.63;7394603;19;20853;-73
2023/10/23 03:53:03;;;;;;;6.53;4.95;;;;;;;12.46;100.00;100671.06;7392883;19;21570;-73
2023/10/23 03:55:30;;;;;;;6.15;4.65;;;;;;;12.45;100.00;100664.91;7392310;19;20447;-73
2023/10/23 03:57:56;;;;;;;6.25;4.78;;;;;;;12.51;100.00;100658.00;7395580;19;20357;-73
2023/10/23 04:00:23;;;;;;;5.90;5.07;;;;;;;12.53;100.00;100655.97;7392940;19;20360;-73
2023/10/23 04:02:52;;;;;;;7.53;5.40;;;;;;;12.58;100.00;100664.22;7391244;19;20353;-73
2023/10/23 04:05:19;;;;;;;6.45;5.28;;;;;;;12.61;99.81;100664.66;7392154;19;20837;-73
2023/10/23 04:07:45;;;;;;;6.40;5.20;;;;;;;12.64;99.78;100658.97;7391333;19;20694;-73
2023/10/23 04:10:13;;;;;;;6.30;5.25;;;;;;;12.69;99.64;100660.22;7390047;19;20368;-73
2023/10/23 04:12:40;;;;;;;5.90;5.00;;;;;;;12.73;99.33;100658.84;7394374;19;20379;-73
2023/10/23 04:15:07;;;;;;;5.70;4.88;;;;;;;12.75;99.11;100648.81;7390305;19;20358;-73
2023/10/23 04:17:34;;;;;;;5.72;4.97;;;;;;;12.76;98.96;100648.63;7394539;19;20436;-73
2023/10/23 04:20:01;;;;;;;5.70;4.90;;;;;;;12.79;98.84;100650.09;7394054;19;20685;-73
2023/10/23 04:22:28;;;;;;;7.03;4.87;;;;;;;12.81;98.81;100653.38;7392202;19;20360;-73
2023/10/23 04:24:55;;;;;;;6.13;4.60;;;;;;;12.80;98.38;100647.25;7389990;19;20997;-73
2023/10/23 04:27:22;;;;;;;6.00;4.60;;;;;;;12.82;98.44;100650.53;7390404;19;21041;-73
2023/10/23 04:29:49;;;;;;;6.30;4.70;;;;;;;12.82;98.28;100650.53;7390126;19;20344;-73
2023/10/23 04:32:16;;;;;;;5.97;5.00;;;;;;;12.84;98.30;100653.03;7390462;19;20412;-73
2023/10/23 04:34:43;;;;;;;6.13;5.05;;;;;;;12.81;98.07;100648.91;7390754;19;20368;-73
2023/10/23 04:37:09;;;;;;;6.30;5.20;;;;;;;12.76;98.03;100651.31;7391515;19;20376;-73
2023/10/23 04:39:36;;;;;;;7.05;5.40;;;;;;;12.74;98.03;100652.50;7392712;19;20970;-73
2023/10/23 04:42:04;;;;;;;6.05;5.43;;;;;;;12.68;98.00;100648.75;7392742;19;20887;-73
2023/10/23 04:44:31;;;;;;;6.05;5.45;;;;;;;12.61;97.88;100643.38;7393671;19;20368;-73
2023/10/23 04:46:57;;;;;;;7.30;6.13;;;;;;;12.54;98.00;100650.47;7392732;19;20367;-73
2023/10/23 04:49:24;;;;;;;7.30;5.50;;;;;;;12.48;98.19;100648.56;7394433;19;20341;-73
2023/10/23 04:51:52;;;;;;;6.35;5.70;;;;;;;12.44;98.31;100647.31;7392428;19;20442;-73
2023/10/23 04:54:20;;;;;;;6.78;5.78;;;;;;;12.41;98.55;100647.66;7393202;19;20659;-73
2023/10/23 04:56:47;;;;;;;7.50;6.40;;;;;;;12.37;98.59;100646.41;7392856;19;20368;-73
2023/10/23 04:59:13;;;;;;;8.23;5.93;;;;;;;12.34;98.66;100652.91;7392902;19;20341;-73
2023/10/23 05:01:40;;;;;;;7.10;6.07;;;;;;;12.31;98.97;100657.81;7390909;19;20364;-73
2023/10/23 05:04:07;;;;;;;7.18;5.85;;;;;;;12.30;98.91;100661.44;7391026;19;20372;-73
2023/10/23 05:06:34;;;;;;;6.60;5.90;;;;;;;12.29;98.85;100667.81;7393068;19;20721;-73
2023/10/23 05:09:02;;;;;;;8.88;5.85;;;;;;;12.30;98.90;100661.44;7393091;19;20902;-73
2023/10/23 05:11:29;;;;;;;7.38;6.50;;;;;;;12.31;98.96;100668.44;7393396;19;20392;-73
2023/10/23 05:13:57;;;;;;;7.43;6.25;;;;;;;12.31;99.04;100666.59;7392135;19;20369;-73
2023/10/23 05:16:24;;;;;;;7.80;6.55;;;;;;;12.34;99.07;100673.38;7392483;19;20369;-72
2023/10/23 05:18:51;;;;;;;8.95;6.63;;;;;;;12.36;99.02;100680.16;7388472;19;20361;-73
2023/10/23 05:21:17;;;;;;;7.22;6.45;;;;;;;12.39;98.89;100676.31;7391470;19;20332;-73
2023/10/23 05:23:44;;;;;;;7.05;6.25;;;;;;;12.42;98.88;100676.75;7393137;19;20363;-73
2023/10/23 05:26:11;;;;;;;8.10;6.37;;;;;;;12.42;98.71;100670.59;7393427;19;20827;-73
2023/10/23 05:28:40;;;;;;;8.15;6.35;;;;;;;12.40;98.69;100662.00;7388929;19;20893;-73
2023/10/23 05:31:08;;;;;;;7.00;6.30;;;;;;;12.36;98.29;100674.00;7391446;19;20369;-73
2023/10/23 05:33:35;;;;;;;7.65;6.60;;;;;;;12.32;98.16;100670.06;7387982;19;20350;-73
2023/10/23 05:36:06;;;;;;;8.55;7.22;;;;;;;12.27;98.18;100675.13;7393202;19;20375;-72
2023/10/23 05:38:33;;;;;;;8.55;7.03;;;;;;;12.18;98.13;100680.56;7392475;19;20360;-72
2023/10/23 05:41:00;;;;;;;7.88;6.60;;;;;;;12.10;98.04;100685.16;7389864;19;20419;-73
2023/10/23 05:43:28;;;;;;;7.60;6.78;;;;;;;11.99;97.84;100692.59;7392200;19;20756;-73
2023/10/23 05:45:56;;;;;;;7.28;6.50;;;;;;;11.91;97.89;100699.84;7391566;19;20881;-73
2023/10/23 05:48:23;;;;;;;7.73;6.93;;;;;;;11.82;98.02;100707.88;7393960;19;20911;-72
2023/10/23 05:51:03;;;;;;;7.73;6.53;;;;;;;11.74;98.38;100702.63;7398578;19;20398;-72
2023/10/23 05:53:31;;;;;;;10.27;7.75;;;;;;;11.68;98.71;100703.34;7401275;19;20340;-72
2023/10/23 05:56:03;;;;;;;12.15;8.02;;;;;;;11.64;99.16;100710.03;7400296;19;20340;-73
2023/10/23 05:58:34;;;;;;;12.57;8.00;;;;;;;11.60;99.49;100716.72;7398877;19;20371;-72
2023/10/23 06:01:12;;;;;;;12.90;8.00;;;;;;;11.59;100.00;100717.75;7397183;19;20369;-72
2023/10/23 06:03:39;;;;;;;11.32;8.35;;;;;;;11.58;100.00;100721.38;7399503;19;20713;-73
2023/10/23 06:06:07;;;;;;;13.68;7.90;;;;;;;11.57;100.00;100731.19;7394474;19;20846;-72
2023/10/23 06:08:34;;;;;;;13.77;8.80;;;;;;;11.59;100.00;100729.19;7386250;19;20384;-73
2023/10/23 06:11:07;;;;;;;10.93;8.10;;;;;;;11.64;100.00;100736.59;7388823;19;20396;-72
2023/10/23 06:13:34;;;;;;;10.40;7.88;;;;;;;11.68;100.00;100737.91;7384890;19;20352;-72
2023/10/23 06:16:04;;;;;;;10.70;7.83;;;;;;;11.71;100.00;100737.56;7386990;19;20360;-72
2023/10/23 06:18:33;;;;;;;11.07;8.02;;;;;;;11.77;100.00;100742.16;7392133;19;20445;-72
2023/10/23 06:21:03;;;;;;;10.70;8.07;;;;;;;11.82;100.00;100745.06;7392466;19;20700;-73
2023/10/23 06:23:35;;;;;;;10.30;8.32;;;;;;;11.86;100.00;100744.69;7398963;19;20368;-72
2023/10/23 06:26:03;;;;;;;9.65;8.15;;;;;;;11.88;100.00;100748.88;7400167;19;20356;-72
2023/10/23 06:28:30;;;;;;;10.98;8.20;;;;;;;11.91;100.00;100750.34;7398570;19;20377;-73
2023/10/23 06:31:07;;;;;;;9.63;7.35;;;;;;;11.94;100.00;100744.66;7396777;19;20364;-79
2023/10/23 06:33:38;;;;;;;8.82;7.63;;;;;;;11.98;100.00;100753.91;7399339;19;20933;-79
2023/10/23 06:36:07;;;;;;;9.93;7.47;;;;;;;12.01;99.98;100756.22;7397565;19;20332;-80
2023/10/23 06:38:35;;;;;;;9.48;7.43;;;;;;;12.02;99.76;100753.34;7397315;19;20372;-79
2023/10/23 06:41:06;;;;;;;12.33;7.70;;;;;;;12.04;99.73;100755.84;7398146;19;20929;-79
2023/10/23 06:43:35;;;;;;;8.80;7.28;;;;;;;12.07;99.85;100757.31;7402117;19;20336;-79
2023/10/23 06:46:06;;;;;;;9.90;7.22;;;;;;;12.09;99.71;100761.47;7398349;19;20353;-79
2023/10/23 06:48:33;;;;;;;10.10;7.27;;;;;;;12.14;99.75;100768.88;7400387;19;20366;-79
2023/10/23 06:51:00;;;;;;;10.80;7.30;;;;;;;12.15;99.57;100768.66;7400879;19;20361;-79
2023/10/23 06:53:27;;;;;;;8.80;7.28;;;;;;;12.16;99.32;100770.34;7399625;19;20865;-79
2023/10/23 06:55:55;;;;;;;9.80;7.20;;;;;;;12.19;99.74;100777.94;7396790;19;20402;-79
2023/10/23 06:58:22;;;;;;;9.27;7.28;;;;;;;12.24;99.60;100778.22;7398033;19;20345;-79
2023/10/23 07:00:49;;;;;;;9.70;7.47;;;;;;;12.28;99.28;100780.50;7394336;19;20352;-79
2023/10/23 07:03:16;;;;;;;8.82;6.97;;;;;;;12.32;99.40;100789.78;7397766;19;20428;-79
2023/10/23 07:05:44;;;;;;;9.32;7.35;;;;;;;12.32;99.19;100795.09;7398469;19;20428;-79
2023/10/23 07:08:11;;;;;;;9.30;7.70;;;;;;;12.35;99.14;100803.53;7397208;19;21089;-79
2023/10/23 07:10:38;;;;;;;10.10;7.80;;;;;;;12.38;99.10;100791.69;7396783;19;20340;-79
2023/10/23 07:13:06;;;;;;;13.55;8.20;;;;;;;12.40;99.04;100795.81;7398843;19;20338;-79
2023/10/23 07:15:47;;;;;;;11.95;8.70;;;;;;;12.46;99.08;100786.28;7391917;19;20361;-79
2023/10/23 07:18:14;;;;;;;9.98;7.88;;;;;;;12.48;98.92;100786.09;7398382;19;20365;-79
2023/10/23 07:20:51;;;;;;;10.33;7.63;;;;;;;12.50;98.53;100784.09;7396045;19;20344;-79
2023/10/23 07:23:18;;;;;;;12.73;7.72;;;;;;;12.55;98.88;100784.34;7397438;19;20337;-79
2023/10/23 07:25:45;;;;;;;8.82;7.70;;;;;;;12.61;98.90;100781.75;7393220;19;20693;-79
2023/10/23 07:28:12;;;;;;;10.35;8.13;;;;;;;12.65;98.61;100783.03;7398477;19;20432;-79
2023/10/23 07:30:39;;;;;;;13.00;8.50;;;;;;;12.69;98.29;100782.66;7396950;19;20355;-79
2023/10/23 07:33:06;;;;;;;9.95;8.25;;;;;;;12.70;98.16;100779.00;7396050;19;20364;-79
2023/10/23 07:35:33;;;;;;;9.20;8.02;;;;;;;12.68;97.80;100781.03;7394927;19;20349;-79
2023/10/23 07:38:18;;;;;;;12.13;8.38;;;;;;;12.70;97.84;100777.16;7400391;19;20356;-79
2023/10/23 07:40:45;;;;;;;11.33;8.93;;;;;;;12.71;97.62;100784.16;7398552;19;20387;-79
2023/10/23 07:43:12;;;;;;;11.30;8.82;;;;;;;12.72;97.73;100782.31;7395567;19;20360;-79
2023/10/23 07:45:39;;;;;;;29.63;22.40;;;;;;;12.79;97.67;100788.50;7398720;19;20360;-79
2023/10/23 07:48:06;;;;;;;17.85;11.60;;;;;;;12.88;98.13;100786.56;7395295;19;20344;-79
2023/10/23 07:50:33;;;;;;;20.70;15.20;;;;;;;12.96;98.02;100781.97;7396359;19;20365;-79
2023/10/23 07:53:00;;;;;;;15.75;11.52;;;;;;;13.05;97.48;100782.69;7400185;19;20887;-79
2023/10/23 07:55:27;;;;;;;13.13;10.05;;;;;;;13.15;97.94;100787.69;7397796;19;20387;-79
2023/10/23 07:57:54;;;;;;;11.70;9.83;;;;;;;13.30;97.82;100785.81;7393510;19;20368;-79
2023/10/23 08:00:21;;;;;;;12.82;9.70;;;;;;;13.44;97.46;100778.78;7400198;19;20356;-80
2023/10/23 08:02:48;;;;;;;14.63;8.50;;;;;;;13.54;96.96;100781.13;7394872;19;20352;-80
2023/10/23 08:05:15;;;;;;;20.73;9.87;;;;;;;13.60;96.40;100781.16;7393275;19;20370;-80
2023/10/23 08:07:42;;;;;;;13.80;9.68;;;;;;;13.68;96.12;100774.84;7391931;19;20380;-79
2023/10/23 08:10:09;;;;;;;12.13;10.13;;;;;;;13.79;96.13;100785.00;7386215;19;20540;-78
2023/10/23 08:12:36;;;;;;;11.80;9.23;;;;;;;13.90;95.89;100782.81;7384180;19;21013;-79
2023/10/23 08:15:03;;;;;;;12.82;9.23;;;;;;;14.05;96.01;100780.88;7385644;19;20436;-78
2023/10/23 08:17:30;;;;;;;12.77;9.88;;;;;;;14.16;95.30;100784.84;7387536;19;20496;-78
2023/10/23 08:20:08;;;;;;;15.00;12.13;;;;;;;14.30;95.01;100780.38;7390755;19;20336;-78
2023/10/23 08:22:36;;;;;;;19.20;13.10;;;;;;;14.36;94.19;100777.75;7396119;19;20368;-78
2023/10/23 08:25:04;;;;;;;17.25;13.60;;;;;;;14.45;93.41;100773.91;7391857;19;20880;-78
2023/10/23 08:27:31;;;;;;;19.00;14.35;;;;;;;14.52;93.01;100771.25;7393196;19;20480;-79
2023/10/23 08:29:58;;;;;;;17.10;14.02;;;;;;;14.55;91.74;100776.22;7392022;19;20357;-79
2023/10/23 08:32:24;;;;;;;16.63;13.83;;;;;;;14.57;90.81;100776.03;7390651;19;20368;-79
2023/10/23 08:35:07;;;;;;;16.25;13.65;;;;;;;14.54;90.85;100777.22;7393661;19;20871;-79
2023/10/23 08:37:33;;;;;;;16.65;13.82;;;;;;;14.61;91.36;100794.13;7388625;19;20359;-79
2023/10/23 08:40:03;;;;;;;15.05;12.90;;;;;;;14.62;90.22;100781.59;7395965;19;20424;-79
2023/10/23 08:42:30;;;;;;;14.82;12.43;;;;;;;14.61;89.77;100786.09;7393303;19;20343;-79
2023/10/23 08:44:59;;;;;;;17.93;13.47;;;;;;;14.69;90.24;100785.13;7391794;19;21006;-79
2023/10/23 08:47:26;;;;;;;16.73;13.60;;;;;;;14.86;89.95;100793.59;7392062;19;20356;-79
2023/10/23 08:49:56;;;;;;;15.30;13.52;;;;;;;15.00;89.88;100787.28;7392492;19;20348;-79
2023/10/23 08:52:25;;;;;;;18.93;13.33;;;;;;;15.07;89.49;100793.44;7393464;19;20371;-79
2023/10/23 08:54:54;;;;;;;16.00;13.52;;;;;;;15.09;88.76;100794.06;7394592;19;20710;-79
2023/10/23 08:57:21;;;;;;;14.88;12.43;;;;;;;15.11;88.70;100793.88;7392769;19;20360;-79
2023/10/23 08:59:48;;;;;;;15.82;13.70;;;;;;;15.12;88.67;100792.84;7392937;19;20345;-79
2023/10/23 09:02:15;;;;;;;16.20;13.27;;;;;;;15.04;87.52;100793.84;7391040;19;20739;-79
2023/10/23 09:04:42;;;;;;;14.25;12.73;;;;;;;15.03;87.94;100788.72;7393993;19;22560;-79
2023/10/23 09:07:13;;;;;;;14.68;13.07;;;;;;;15.02;88.26;100787.06;7394983;19;20890;-79
2023/10/23 09:09:40;;;;;;;14.97;12.73;;;;;;;15.00;88.36;100792.63;7393243;19;20379;-79
2023/10/23 09:12:07;;;;;;;16.75;13.45;;;;;;;14.99;88.34;100787.47;7393167;19;20351;-79
2023/10/23 09:14:35;;;;;;;23.45;12.63;;;;;;;14.96;88.26;100795.88;7393917;19;20447;-79
2023/10/23 09:17:05;;;;;;;25.10;13.32;;;;;;;14.95;88.73;100792.38;7392826;19;20671;-79
2023/10/23 09:19:36;;;;;;;15.35;13.73;;;;;;;14.99;88.93;100795.50;7391329;19;20372;-79
2023/10/23 09:22:09;;;;;;;15.57;13.15;;;;;;;15.09;89.21;100793.25;7395426;19;20367;-79
2023/10/23 09:24:37;;;;;;;15.25;12.32;;;;;;;15.32;89.32;100792.03;7401960;19;20352;-79
2023/10/23 09:27:04;;;;;;;18.10;13.07;;;;;;;15.49;88.75;100796.81;7403776;19;20376;-79
2023/10/23 09:29:32;;;;;;;13.20;11.80;;;;;;;15.66;88.05;100783.00;7398393;19;20370;-79
2023/10/23 09:32:04;;;;;;;14.85;11.52;;;;;;;15.93;86.66;100780.34;7399448;19;20386;-79
2023/10/23 09:34:33;;;;;;;14.57;11.10;;;;;;;16.04;84.93;100779.72;7403226;19;20773;-79
2023/10/23 09:37:00;;;;;;;12.27;10.98;;;;;;;16.17;84.64;100782.38;7396320;19;20725;-79
2023/10/23 09:39:27;;;;;;;13.68;10.82;;;;;;;16.30;85.00;100776.16;7402290;19;20420;-79
2023/10/23 09:41:55;;;;;;;12.47;10.60;;;;;;;16.57;84.85;100776.88;7398818;19;20356;-78
2023/10/23 09:44:24;;;;;;;13.90;11.07;;;;;;;16.81;83.95;100777.19;7398568;19;20321;-79
2023/10/23 09:46:53;;;;;;;12.15;10.25;;;;;;;17.01;82.79;100767.22;7398721;19;20360;-79
2023/10/23 09:49:20;;;;;;;11.25;10.15;;;;;;;17.20;82.16;100762.75;7397799;19;20416;-79
2023/10/23 09:51:49;;;;;;;12.27;9.90;;;;;;;17.33;81.52;100759.97;7397928;19;20364;-79
2023/10/23 09:54:19;;;;;;;12.35;9.25;;;;;;;17.47;81.16;100760.69;7397049;19;20360;-78
2023/10/23 09:56:47;;;;;;;10.75;9.02;;;;;;;17.59;78.46;100762.66;7394243;19;20782;-79
2023/10/23 09:59:17;;;;;;;10.88;9.13;;;;;;;17.75;78.74;100756.75;7396643;19;20381;-79
2023/10/23 10:01:50;;;;;;;11.55;10.35;;;;;;;17.85;76.34;100756.25;7396211;19;20374;-79
2023/10/23 10:04:33;;;;;;;12.67;10.43;;;;;;;17.89;76.87;100752.94;7397156;19;20363;-79
2023/10/23 10:07:07;;;;;;;10.07;9.00;;;;;;;17.98;75.20;100755.28;7398822;19;20347;-79
2023/10/23 10:09:35;;;;;;;9.27;8.25;;;;;;;18.16;75.68;100741.06;7397194;19;20378;-80
2023/10/23 10:12:03;;;;;;;12.23;8.52;;;;;;;18.37;74.66;100745.16;7397544;19;20569;-79
2023/10/23 10:14:31;;;;;;;8.45;7.65;;;;;;;18.53;74.45;100741.84;7398470;19;20347;-79
2023/10/23 10:17:01;;;;;;;9.98;7.05;;;;;;;18.71;72.99;100749.88;7395217;19;20382;-79
2023/10/23 10:19:28;;;;;;;7.93;6.10;;;;;;;18.84;70.82;100748.91;7397542;19;20426;-79
2023/10/23 10:22:17;;;;;;;7.55;6.75;;;;;;;18.97;70.53;100742.53;7401167;19;20360;-79
2023/10/23 10:24:45;;;;;;;8.05;6.30;;;;;;;18.94;68.84;100737.63;7398450;19;20652;-79
2023/10/23 10:27:13;;;;;;;7.53;5.95;;;;;;;18.96;69.60;100743.59;7397811;19;20346;-79
2023/10/23 10:29:41;;;;;;;6.20;5.35;;;;;;;19.01;67.70;100743.72;7396496;19;20344;-79
2023/10/23 10:32:10;;;;;;;9.10;7.67;;;;;;;18.93;67.62;100736.81;7397140;19;20352;-79
2023/10/23 10:34:50;;;;;;;10.05;8.52;;;;;;;18.69;67.62;100735.03;7394773;19;20667;-79
2023/10/23 10:37:24;;;;;;;12.13;8.85;;;;;;;18.61;67.62;100738.03;7395251;19;20367;-79
2023/10/23 10:40:03;;;;;;;9.37;8.00;;;;;;;18.65;68.02;100736.53;7397212;19;20348;-79
2023/10/23 10:42:35;;;;;;;8.80;7.45;;;;;;;18.77;68.79;100737.41;7396286;19;20337;-78
2023/10/23 10:45:13;;;;;;;9.90;7.50;;;;;;;18.97;68.99;100731.78;7395407;19;20391;-79
2023/10/23 10:47:48;;;;;;;8.70;7.75;;;;;;;18.96;66.92;100735.53;7395824;19;20376;-79
2023/10/23 10:50:33;;;;;;;7.53;6.80;;;;;;;19.00;66.22;100731.31;7396858;19;20351;-79
2023/10/23 10:53:05;;;;;;;9.00;5.93;;;;;;;19.14;66.61;100731.94;7395439;19;20805;-79
2023/10/23 10:55:34;;;;;;;6.82;5.22;;;;;;;19.37;67.10;100736.53;7396264;19;20697;-79
2023/10/23 10:58:03;;;;;;;7.03;6.32;;;;;;;19.47;65.97;100723.31;7396942;19;20448;-79
2023/10/23 11:00:32;;;;;;;5.47;4.50;;;;;;;19.48;63.68;100732.22;7396546;19;20348;-79
2023/10/23 11:02:59;;;;;;;6.32;4.60;;;;;;;19.47;63.49;100730.59;7393568;19;20402;-79
2023/10/23 11:05:27;;;;;;;5.25;4.50;;;;;;;19.42;62.80;100725.88;7398705;19;20347;-79
2023/10/23 11:07:54;;;;;;;5.38;4.45;;;;;;;19.37;62.74;100724.97;7396076;19;20336;-79
2023/10/23 11:10:21;;;;;;;5.27;4.40;;;;;;;19.30;62.45;100717.81;7395644;19;20345;-79
2023/10/23 11:12:50;;;;;;;5.30;4.57;;;;;;;19.25;62.83;100714.16;7396424;19;20373;-79
2023/10/23 11:15:17;;;;;;;5.07;4.53;;;;;;;19.18;63.54;100713.47;7394009;19;20755;-79
2023/10/23 11:17:45;;;;;;;5.13;4.13;;;;;;;19.07;62.97;100698.97;7394646;19;20371;-80
2023/10/23 11:20:13;;;;;;;10.00;8.73;;;;;;;18.94;64.97;100697.28;7396739;19;20366;-79
2023/10/23 11:22:42;;;;;;;14.20;12.55;;;;;;;18.85;65.38;100695.97;7397973;19;20361;-80
2023/10/23 11:25:10;;;;;;;8.23;4.93;;;;;;;18.78;66.39;100700.59;7392075;19;20386;-80